BAW87 EGLL-CYVR
Flight info
| Callsign | BAW87 |
|---|---|
| Flight time | N/A |
| Altitude | 40000 |
| Route | ULTIB1J ULTIB T420 TNT UL28 RODOL UM65 TENSO L603 BELOX DCT REMSI DCT GOMUP/M084F390 NATA LIBOR/M084F400 DCT GRIBS/N0494F400 DCT FEDDY DCT TAGIS DCT PIBRO DCT YEK DCT YSF DCT YMM/N0492F430 J527 YZU DCT BOOTH LIONN4 |
| Aircraft | B788/H-SADE1E2E3FGHIJ1J3J4J5J6LM1M2OP2RWXYZ/LB1D1G1 |
Departure
| Time | 2026-05-07 13:27 |
|---|---|
| Airport | London Heathrow Airport (EGLL) |
Arrival
| Time | N/A |
|---|---|
| Airport | Vancouver International Airport (CYVR) |
| Time | Latitude | Longitude | Altitude | Speed | Heading |
|---|---|---|---|---|---|
| 2026-05-07 13:27 | 51.49907 | -0.36332 | 4191 ft | 184 kts | 11° |
| 2026-05-07 13:27 | 51.51166 | -0.36051 | 4989 ft | 186 kts | 0° |
| 2026-05-07 13:27 | 51.52408 | -0.36834 | 5255 ft | 212 kts | 324° |
| 2026-05-07 13:28 | 51.53784 | -0.38177 | 5426 ft | 250 kts | 332° |
| 2026-05-07 13:28 | 51.55449 | -0.39312 | 6090 ft | 265 kts | 338° |
| 2026-05-07 13:28 | 51.57203 | -0.40365 | 6935 ft | 272 kts | 338° |
| 2026-05-07 13:28 | 51.58979 | -0.41504 | 7801 ft | 277 kts | 336° |
| 2026-05-07 13:29 | 51.60779 | -0.42705 | 8667 ft | 283 kts | 336° |
| 2026-05-07 13:29 | 51.62620 | -0.43922 | 9525 ft | 289 kts | 337° |
| 2026-05-07 13:29 | 51.64482 | -0.45137 | 10336 ft | 295 kts | 338° |
| 2026-05-07 13:29 | 51.66439 | -0.46416 | 10829 ft | 312 kts | 337° |
| 2026-05-07 13:30 | 51.68510 | -0.47779 | 11254 ft | 331 kts | 337° |
| 2026-05-07 13:30 | 51.70701 | -0.49221 | 11639 ft | 350 kts | 337° |
| 2026-05-07 13:30 | 51.72986 | -0.50725 | 12333 ft | 358 kts | 337° |
| 2026-05-07 13:30 | 51.75313 | -0.52257 | 13086 ft | 364 kts | 337° |
| 2026-05-07 13:31 | 51.77675 | -0.53815 | 13899 ft | 368 kts | 337° |
| 2026-05-07 13:31 | 51.80061 | -0.55391 | 14636 ft | 372 kts | 337° |
| 2026-05-07 13:31 | 51.82475 | -0.56988 | 15356 ft | 376 kts | 337° |
| 2026-05-07 13:31 | 51.84910 | -0.58600 | 16075 ft | 380 kts | 336° |
| 2026-05-07 13:32 | 51.87369 | -0.60229 | 16783 ft | 384 kts | 336° |
| 2026-05-07 13:32 | 51.89852 | -0.61877 | 17485 ft | 387 kts | 336° |
| 2026-05-07 13:32 | 51.92359 | -0.63543 | 18182 ft | 391 kts | 336° |
| 2026-05-07 13:32 | 51.94887 | -0.65225 | 18797 ft | 395 kts | 336° |
| 2026-05-07 13:33 | 51.97405 | -0.66902 | 19391 ft | 398 kts | 336° |
| 2026-05-07 13:33 | 51.99978 | -0.68617 | 19978 ft | 401 kts | 336° |
| 2026-05-07 13:33 | 52.02568 | -0.70347 | 20543 ft | 404 kts | 336° |
| 2026-05-07 13:33 | 52.05183 | -0.72095 | 21110 ft | 408 kts | 336° |
| 2026-05-07 13:34 | 52.07815 | -0.73857 | 21646 ft | 411 kts | 336° |
| 2026-05-07 13:34 | 52.13148 | -0.77433 | 22715 ft | 417 kts | 336° |
| 2026-05-07 13:34 | 52.15841 | -0.79243 | 23217 ft | 420 kts | 336° |
| 2026-05-07 13:35 | 52.18555 | -0.81069 | 23712 ft | 424 kts | 336° |
| 2026-05-07 13:35 | 52.21290 | -0.82912 | 24115 ft | 426 kts | 336° |
| 2026-05-07 13:35 | 52.24042 | -0.84775 | 24517 ft | 429 kts | 335° |
| 2026-05-07 13:35 | 52.26655 | -0.87112 | 24888 ft | 430 kts | 327° |
| 2026-05-07 13:36 | 52.29218 | -0.89676 | 25262 ft | 433 kts | 327° |
| 2026-05-07 13:36 | 52.31796 | -0.92267 | 25619 ft | 437 kts | 328° |
| 2026-05-07 13:36 | 52.34402 | -0.94856 | 25988 ft | 440 kts | 328° |
| 2026-05-07 13:36 | 52.37026 | -0.97459 | 26345 ft | 443 kts | 328° |
| 2026-05-07 13:37 | 52.39666 | -1.00096 | 26723 ft | 445 kts | 328° |
| 2026-05-07 13:37 | 52.42315 | -1.02754 | 27053 ft | 448 kts | 328° |
| 2026-05-07 13:37 | 52.44987 | -1.05432 | 27396 ft | 451 kts | 328° |
| 2026-05-07 13:37 | 52.47640 | -1.08090 | 27730 ft | 454 kts | 328° |
| 2026-05-07 13:38 | 52.50337 | -1.10797 | 28061 ft | 456 kts | 328° |
| 2026-05-07 13:38 | 52.53051 | -1.13530 | 28379 ft | 459 kts | 328° |
| 2026-05-07 13:38 | 52.55778 | -1.16279 | 28685 ft | 462 kts | 329° |
| 2026-05-07 13:38 | 52.58530 | -1.19054 | 28992 ft | 464 kts | 329° |
| 2026-05-07 13:39 | 52.61296 | -1.21846 | 29295 ft | 467 kts | 329° |
| 2026-05-07 13:39 | 52.64074 | -1.24654 | 29596 ft | 469 kts | 329° |
| 2026-05-07 13:39 | 52.66860 | -1.27477 | 29908 ft | 472 kts | 329° |
| 2026-05-07 13:39 | 52.69664 | -1.30322 | 30187 ft | 474 kts | 329° |
| 2026-05-07 13:40 | 52.72480 | -1.33183 | 30431 ft | 476 kts | 329° |
| 2026-05-07 13:40 | 52.75304 | -1.36061 | 30703 ft | 478 kts | 329° |
| 2026-05-07 13:40 | 52.78145 | -1.38962 | 30946 ft | 481 kts | 329° |
| 2026-05-07 13:40 | 52.80998 | -1.41876 | 31162 ft | 483 kts | 329° |
| 2026-05-07 13:41 | 52.83862 | -1.44807 | 31407 ft | 485 kts | 329° |
| 2026-05-07 13:41 | 52.86737 | -1.47754 | 31636 ft | 487 kts | 329° |
| 2026-05-07 13:41 | 52.89623 | -1.50718 | 31867 ft | 489 kts | 329° |
| 2026-05-07 13:41 | 52.92525 | -1.53701 | 32099 ft | 491 kts | 329° |
| 2026-05-07 13:42 | 52.95433 | -1.56696 | 32326 ft | 493 kts | 329° |
| 2026-05-07 13:42 | 52.98353 | -1.59709 | 32544 ft | 495 kts | 329° |
| 2026-05-07 13:42 | 53.01245 | -1.62697 | 32754 ft | 497 kts | 329° |
| 2026-05-07 13:42 | 53.04186 | -1.65741 | 32966 ft | 499 kts | 329° |
| 2026-05-07 13:43 | 53.07137 | -1.68800 | 33178 ft | 501 kts | 329° |
| 2026-05-07 13:43 | 53.10095 | -1.71875 | 33380 ft | 502 kts | 329° |
| 2026-05-07 13:43 | 53.13062 | -1.74965 | 33587 ft | 504 kts | 329° |
| 2026-05-07 13:43 | 53.16039 | -1.78069 | 33785 ft | 505 kts | 329° |
| 2026-05-07 13:44 | 53.19029 | -1.81191 | 34072 ft | 505 kts | 329° |
| 2026-05-07 13:44 | 53.22001 | -1.84300 | 34324 ft | 505 kts | 328° |
| 2026-05-07 13:44 | 53.25007 | -1.87320 | 34573 ft | 503 kts | 332° |
| 2026-05-07 13:44 | 53.28064 | -1.90177 | 34810 ft | 503 kts | 330° |
| 2026-05-07 13:45 | 53.31097 | -1.93086 | 35059 ft | 502 kts | 330° |
| 2026-05-07 13:45 | 53.34131 | -1.95989 | 35315 ft | 502 kts | 330° |
| 2026-05-07 13:45 | 53.37132 | -1.98822 | 35558 ft | 501 kts | 331° |
| 2026-05-07 13:45 | 53.40169 | -2.01694 | 35807 ft | 501 kts | 330° |
| 2026-05-07 13:46 | 53.43192 | -2.04583 | 36049 ft | 500 kts | 330° |
| 2026-05-07 13:46 | 53.46216 | -2.07482 | 36279 ft | 500 kts | 330° |
| 2026-05-07 13:46 | 53.49236 | -2.10367 | 36523 ft | 499 kts | 330° |
| 2026-05-07 13:46 | 53.52258 | -2.13255 | 36767 ft | 499 kts | 330° |
| 2026-05-07 13:47 | 53.55272 | -2.16176 | 36974 ft | 499 kts | 326° |
| 2026-05-07 13:47 | 53.57999 | -2.19720 | 37310 ft | 495 kts | 314° |
| 2026-05-07 13:47 | 53.60242 | -2.24077 | 37601 ft | 491 kts | 302° |
| 2026-05-07 13:47 | 53.61929 | -2.29033 | 37890 ft | 486 kts | 291° |
| 2026-05-07 13:48 | 53.63186 | -2.34317 | 38095 ft | 485 kts | 290° |
| 2026-05-07 13:48 | 53.64402 | -2.39616 | 38307 ft | 485 kts | 289° |
| 2026-05-07 13:48 | 53.65606 | -2.44933 | 38519 ft | 486 kts | 289° |
| 2026-05-07 13:48 | 53.66817 | -2.50255 | 38721 ft | 485 kts | 289° |
| 2026-05-07 13:49 | 53.68018 | -2.55504 | 38888 ft | 485 kts | 289° |
| 2026-05-07 13:49 | 53.69229 | -2.60829 | 39055 ft | 485 kts | 289° |
| 2026-05-07 13:49 | 53.70430 | -2.66149 | 39214 ft | 485 kts | 289° |
| 2026-05-07 13:49 | 53.71629 | -2.71468 | 39391 ft | 485 kts | 289° |
| 2026-05-07 13:50 | 53.72832 | -2.76799 | 39556 ft | 485 kts | 289° |
| 2026-05-07 13:50 | 53.74029 | -2.82121 | 39710 ft | 485 kts | 289° |
| 2026-05-07 13:50 | 53.75220 | -2.87440 | 39866 ft | 484 kts | 289° |
| 2026-05-07 13:50 | 53.76410 | -2.92769 | 40013 ft | 485 kts | 289° |
| 2026-05-07 13:51 | 53.77601 | -2.98110 | 40011 ft | 486 kts | 289° |
| 2026-05-07 13:51 | 53.79963 | -3.08740 | 40016 ft | 480 kts | 289° |
| 2026-05-07 13:52 | 53.82296 | -3.19301 | 40019 ft | 483 kts | 289° |
| 2026-05-07 13:52 | 53.84638 | -3.29953 | 40019 ft | 483 kts | 289° |
| 2026-05-07 13:53 | 53.86978 | -3.40651 | 40017 ft | 483 kts | 289° |
| 2026-05-07 13:53 | 53.89292 | -3.51284 | 40017 ft | 484 kts | 288° |
| 2026-05-07 13:54 | 53.91609 | -3.61991 | 40011 ft | 484 kts | 288° |
| 2026-05-07 13:54 | 53.93927 | -3.72756 | 40024 ft | 484 kts | 288° |
| 2026-05-07 13:55 | 53.96699 | -3.83130 | 40036 ft | 485 kts | 304° |
| 2026-05-07 13:55 | 54.01129 | -3.91733 | 40012 ft | 488 kts | 311° |
| 2026-05-07 13:56 | 54.05796 | -4.00104 | 40010 ft | 487 kts | 311° |
| 2026-05-07 13:56 | 54.10440 | -4.08518 | 40002 ft | 487 kts | 311° |
| 2026-05-07 13:57 | 54.15087 | -4.16937 | 40001 ft | 487 kts | 311° |
| 2026-05-07 13:57 | 54.19676 | -4.25294 | 39993 ft | 488 kts | 311° |
| 2026-05-07 13:58 | 54.24309 | -4.33757 | 39989 ft | 487 kts | 311° |
| 2026-05-07 13:58 | 54.28155 | -4.40803 | 39987 ft | 487 kts | 311° |
| 2026-05-07 13:59 | 54.33528 | -4.50686 | 39982 ft | 488 kts | 310° |
| 2026-05-07 13:59 | 54.38148 | -4.59214 | 39980 ft | 488 kts | 310° |
| 2026-05-07 14:00 | 54.41984 | -4.66319 | 39982 ft | 488 kts | 310° |
| 2026-05-07 14:00 | 54.46574 | -4.74848 | 39978 ft | 485 kts | 310° |
| 2026-05-07 14:01 | 54.51148 | -4.83379 | 39983 ft | 486 kts | 310° |
| 2026-05-07 14:01 | 54.55741 | -4.91973 | 39968 ft | 488 kts | 310° |
| 2026-05-07 14:02 | 54.60339 | -5.00608 | 39972 ft | 488 kts | 310° |
| 2026-05-07 14:02 | 54.64923 | -5.09249 | 39980 ft | 488 kts | 310° |
| 2026-05-07 14:03 | 54.69502 | -5.17910 | 39966 ft | 487 kts | 310° |
| 2026-05-07 14:03 | 54.74027 | -5.26502 | 39955 ft | 486 kts | 309° |
| 2026-05-07 14:04 | 54.78577 | -5.35172 | 39958 ft | 486 kts | 309° |
| 2026-05-07 14:04 | 54.83126 | -5.43870 | 39948 ft | 486 kts | 309° |
| 2026-05-07 14:05 | 54.87681 | -5.52613 | 39943 ft | 489 kts | 309° |
| 2026-05-07 14:05 | 54.92244 | -5.61400 | 39933 ft | 488 kts | 309° |
| 2026-05-07 14:06 | 54.96787 | -5.70184 | 39926 ft | 487 kts | 309° |
| 2026-05-07 14:06 | 55.01314 | -5.78967 | 39925 ft | 487 kts | 309° |
| 2026-05-07 14:07 | 55.05837 | -5.87775 | 39921 ft | 487 kts | 309° |
| 2026-05-07 14:07 | 55.10324 | -5.96546 | 39918 ft | 487 kts | 309° |
| 2026-05-07 14:08 | 55.14837 | -6.05400 | 39920 ft | 488 kts | 308° |
| 2026-05-07 14:08 | 55.19346 | -6.14278 | 39921 ft | 488 kts | 308° |
| 2026-05-07 14:09 | 55.23851 | -6.23181 | 39915 ft | 488 kts | 308° |
| 2026-05-07 14:09 | 55.28351 | -6.32107 | 39916 ft | 488 kts | 308° |
| 2026-05-07 14:10 | 55.32818 | -6.41001 | 39917 ft | 489 kts | 308° |
| 2026-05-07 14:10 | 55.37309 | -6.49976 | 39912 ft | 489 kts | 308° |
| 2026-05-07 14:11 | 55.41786 | -6.58957 | 39903 ft | 488 kts | 308° |
| 2026-05-07 14:11 | 55.46253 | -6.67950 | 39916 ft | 487 kts | 308° |
| 2026-05-07 14:12 | 55.50711 | -6.76959 | 39899 ft | 487 kts | 307° |
| 2026-05-07 14:12 | 55.55160 | -6.85985 | 39899 ft | 487 kts | 307° |
| 2026-05-07 14:13 | 55.59603 | -6.95032 | 39901 ft | 488 kts | 307° |
| 2026-05-07 14:13 | 55.64035 | -7.04090 | 39893 ft | 486 kts | 307° |
| 2026-05-07 14:14 | 55.68456 | -7.13160 | 39891 ft | 486 kts | 307° |
| 2026-05-07 14:14 | 55.72866 | -7.22242 | 39885 ft | 486 kts | 307° |
| 2026-05-07 14:15 | 55.77266 | -7.31337 | 39884 ft | 485 kts | 307° |
| 2026-05-07 14:15 | 55.81629 | -7.40390 | 39883 ft | 485 kts | 307° |
| 2026-05-07 14:16 | 55.86014 | -7.49525 | 39882 ft | 486 kts | 307° |
| 2026-05-07 14:16 | 55.90399 | -7.58691 | 39881 ft | 486 kts | 307° |
| 2026-05-07 14:17 | 55.94783 | -7.67893 | 39880 ft | 487 kts | 307° |
| 2026-05-07 14:17 | 55.99087 | -7.76958 | 39878 ft | 487 kts | 306° |
| 2026-05-07 14:18 | 56.03461 | -7.86209 | 39875 ft | 487 kts | 306° |
| 2026-05-07 14:18 | 56.07825 | -7.95471 | 39870 ft | 484 kts | 306° |
| 2026-05-07 14:19 | 56.12146 | -8.04682 | 39853 ft | 482 kts | 306° |
| 2026-05-07 14:19 | 56.16434 | -8.13857 | 39847 ft | 483 kts | 306° |
| 2026-05-07 14:20 | 56.20751 | -8.23126 | 39862 ft | 483 kts | 306° |
| 2026-05-07 14:20 | 56.25060 | -8.32415 | 39852 ft | 484 kts | 306° |
| 2026-05-07 14:21 | 56.29363 | -8.41726 | 39860 ft | 484 kts | 306° |
| 2026-05-07 14:21 | 56.33660 | -8.51063 | 39841 ft | 483 kts | 306° |
| 2026-05-07 14:22 | 56.37944 | -8.60406 | 39832 ft | 483 kts | 306° |
| 2026-05-07 14:22 | 56.42216 | -8.69762 | 39836 ft | 484 kts | 306° |
| 2026-05-07 14:23 | 56.46471 | -8.79113 | 39830 ft | 485 kts | 306° |
| 2026-05-07 14:23 | 56.50754 | -8.88564 | 39821 ft | 485 kts | 306° |
| 2026-05-07 14:24 | 56.55031 | -8.98040 | 39813 ft | 486 kts | 306° |
| 2026-05-07 14:24 | 56.59306 | -9.07548 | 39811 ft | 486 kts | 306° |
| 2026-05-07 14:25 | 56.63571 | -9.17072 | 39803 ft | 485 kts | 306° |
| 2026-05-07 14:25 | 56.67799 | -9.26550 | 39803 ft | 485 kts | 305° |
| 2026-05-07 14:26 | 56.72042 | -9.36099 | 39796 ft | 484 kts | 305° |
| 2026-05-07 14:26 | 56.76281 | -9.45680 | 39790 ft | 487 kts | 305° |
| 2026-05-07 14:27 | 56.80520 | -9.55295 | 39780 ft | 486 kts | 305° |
| 2026-05-07 14:27 | 56.84751 | -9.64933 | 39774 ft | 486 kts | 305° |
| 2026-05-07 14:28 | 56.88971 | -9.74584 | 39775 ft | 486 kts | 305° |
| 2026-05-07 14:28 | 56.93190 | -9.84272 | 39765 ft | 486 kts | 304° |
| 2026-05-07 14:29 | 56.97374 | -9.93918 | 39763 ft | 487 kts | 304° |
| 2026-05-07 14:29 | 57.01055 | -10.04175 | 39767 ft | 477 kts | 291° |
| 2026-05-07 14:30 | 57.03839 | -10.15244 | 39752 ft | 478 kts | 291° |
| 2026-05-07 14:30 | 57.06614 | -10.26346 | 39755 ft | 478 kts | 291° |
| 2026-05-07 14:31 | 57.09386 | -10.37475 | 39742 ft | 479 kts | 291° |
| 2026-05-07 14:31 | 57.12146 | -10.48629 | 39738 ft | 479 kts | 291° |
| 2026-05-07 14:32 | 57.14895 | -10.59786 | 39732 ft | 478 kts | 291° |
| 2026-05-07 14:32 | 57.17635 | -10.70965 | 39728 ft | 478 kts | 291° |
| 2026-05-07 14:33 | 57.20368 | -10.82173 | 39724 ft | 479 kts | 291° |
| 2026-05-07 14:33 | 57.23090 | -10.93390 | 39715 ft | 479 kts | 291° |
| 2026-05-07 14:34 | 57.25783 | -11.04549 | 39704 ft | 479 kts | 291° |
| 2026-05-07 14:34 | 57.28486 | -11.15806 | 39717 ft | 479 kts | 291° |
| 2026-05-07 14:35 | 57.31185 | -11.27106 | 39709 ft | 480 kts | 291° |
| 2026-05-07 14:35 | 57.33872 | -11.38411 | 39705 ft | 479 kts | 291° |
| 2026-05-07 14:36 | 57.36537 | -11.49687 | 39701 ft | 476 kts | 290° |
| 2026-05-07 14:36 | 57.39186 | -11.60953 | 39712 ft | 476 kts | 290° |
| 2026-05-07 14:37 | 57.41833 | -11.72270 | 39699 ft | 479 kts | 290° |
| 2026-05-07 14:37 | 57.45785 | -11.89277 | 39701 ft | 478 kts | 290° |
| 2026-05-07 14:38 | 57.48390 | -12.00559 | 39691 ft | 478 kts | 290° |
| 2026-05-07 14:38 | 57.51004 | -12.11946 | 39689 ft | 479 kts | 290° |
| 2026-05-07 14:39 | 57.53606 | -12.23336 | 39688 ft | 476 kts | 290° |
| 2026-05-07 14:39 | 57.56186 | -12.34699 | 39682 ft | 479 kts | 290° |
| 2026-05-07 14:40 | 57.58761 | -12.46087 | 39705 ft | 474 kts | 290° |
| 2026-05-07 14:40 | 57.61313 | -12.57454 | 39687 ft | 479 kts | 290° |
| 2026-05-07 14:41 | 57.63876 | -12.68913 | 39681 ft | 479 kts | 290° |
| 2026-05-07 14:41 | 57.66424 | -12.80380 | 39681 ft | 479 kts | 290° |
| 2026-05-07 14:42 | 57.68969 | -12.91889 | 39696 ft | 479 kts | 290° |
| 2026-05-07 14:42 | 57.71499 | -13.03396 | 39687 ft | 477 kts | 289° |
| 2026-05-07 14:43 | 57.74016 | -13.14911 | 39685 ft | 478 kts | 289° |
| 2026-05-07 14:43 | 57.76519 | -13.26420 | 39698 ft | 476 kts | 289° |
| 2026-05-07 14:44 | 57.79009 | -13.37944 | 39682 ft | 479 kts | 290° |
| 2026-05-07 14:44 | 57.81489 | -13.49465 | 39710 ft | 478 kts | 288° |
| 2026-05-07 14:45 | 57.83943 | -13.60950 | 39691 ft | 477 kts | 290° |
| 2026-05-07 14:45 | 57.86398 | -13.72485 | 39692 ft | 471 kts | 288° |
| 2026-05-07 14:46 | 57.88796 | -13.83842 | 39703 ft | 468 kts | 289° |
| 2026-05-07 14:46 | 57.91183 | -13.95178 | 39704 ft | 462 kts | 288° |
| 2026-05-07 14:47 | 57.93550 | -14.06505 | 39731 ft | 463 kts | 288° |
| 2026-05-07 14:47 | 57.95908 | -14.17842 | 39728 ft | 466 kts | 288° |
| 2026-05-07 14:48 | 57.97853 | -14.27242 | 39728 ft | 464 kts | 289° |
| 2026-05-07 14:48 | 58.00590 | -14.40553 | 39751 ft | 473 kts | 289° |
| 2026-05-07 14:49 | 58.02566 | -14.50198 | 39753 ft | 464 kts | 288° |
| 2026-05-07 14:49 | 58.04868 | -14.61528 | 39773 ft | 467 kts | 288° |
| 2026-05-07 14:50 | 58.07161 | -14.72852 | 39773 ft | 460 kts | 288° |
| 2026-05-07 14:50 | 58.09449 | -14.84244 | 39770 ft | 465 kts | 288° |
| 2026-05-07 14:51 | 58.11740 | -14.95682 | 39801 ft | 461 kts | 289° |
| 2026-05-07 14:51 | 58.13999 | -15.07043 | 39837 ft | 457 kts | 289° |
| 2026-05-07 14:52 | 58.16245 | -15.18400 | 39859 ft | 461 kts | 288° |
| 2026-05-07 14:52 | 58.18486 | -15.29799 | 39918 ft | 463 kts | 288° |
| 2026-05-07 14:53 | 58.20706 | -15.41153 | 39965 ft | 460 kts | 288° |
| 2026-05-07 14:53 | 58.22927 | -15.52589 | 40026 ft | 465 kts | 289° |
| 2026-05-07 14:54 | 58.25157 | -15.64120 | 40071 ft | 463 kts | 288° |
| 2026-05-07 14:54 | 58.27376 | -15.75684 | 40110 ft | 469 kts | 289° |
| 2026-05-07 14:55 | 58.29604 | -15.87348 | 40173 ft | 467 kts | 288° |
| 2026-05-07 14:55 | 58.31798 | -15.98914 | 40221 ft | 465 kts | 288° |
| 2026-05-07 14:56 | 58.33974 | -16.10455 | 40283 ft | 466 kts | 288° |
| 2026-05-07 14:56 | 58.36141 | -16.22010 | 40323 ft | 469 kts | 289° |
| 2026-05-07 14:57 | 58.38313 | -16.33659 | 40365 ft | 466 kts | 288° |
| 2026-05-07 14:57 | 58.40489 | -16.45410 | 40418 ft | 474 kts | 289° |
| 2026-05-07 14:58 | 58.42654 | -16.57171 | 40462 ft | 466 kts | 288° |
| 2026-05-07 14:58 | 58.44797 | -16.68887 | 40507 ft | 462 kts | 288° |
| 2026-05-07 14:59 | 58.46903 | -16.80470 | 40557 ft | 464 kts | 288° |
| 2026-05-07 14:59 | 58.49015 | -16.92157 | 40611 ft | 464 kts | 288° |
| 2026-05-07 15:00 | 58.51124 | -17.03905 | 40669 ft | 468 kts | 288° |
| 2026-05-07 15:00 | 58.53220 | -17.15651 | 40698 ft | 468 kts | 288° |
| 2026-05-07 15:01 | 58.55307 | -17.27420 | 40760 ft | 467 kts | 288° |
| 2026-05-07 15:01 | 58.57377 | -17.39170 | 40797 ft | 464 kts | 288° |
| 2026-05-07 15:02 | 58.59446 | -17.50983 | 40846 ft | 469 kts | 288° |
| 2026-05-07 15:02 | 58.61506 | -17.62834 | 40896 ft | 470 kts | 288° |
| 2026-05-07 15:03 | 58.63579 | -17.74828 | 40950 ft | 474 kts | 288° |
| 2026-05-07 15:03 | 58.65608 | -17.86646 | 41004 ft | 469 kts | 288° |
| 2026-05-07 15:04 | 58.67646 | -17.98595 | 41049 ft | 468 kts | 288° |
| 2026-05-07 15:04 | 58.69663 | -18.10501 | 41086 ft | 470 kts | 288° |
| 2026-05-07 15:05 | 58.71671 | -18.22430 | 41144 ft | 471 kts | 288° |
| 2026-05-07 15:05 | 58.73679 | -18.34440 | 41186 ft | 473 kts | 288° |
| 2026-05-07 15:06 | 58.75676 | -18.46460 | 41239 ft | 471 kts | 288° |
| 2026-05-07 15:06 | 58.77640 | -18.58372 | 41271 ft | 467 kts | 288° |
| 2026-05-07 15:07 | 58.79603 | -18.70346 | 41312 ft | 468 kts | 288° |
| 2026-05-07 15:07 | 58.81549 | -18.82305 | 41374 ft | 470 kts | 288° |
| 2026-05-07 15:08 | 58.83502 | -18.94391 | 41429 ft | 468 kts | 288° |
| 2026-05-07 15:08 | 58.85420 | -19.06337 | 41471 ft | 468 kts | 288° |
| 2026-05-07 15:09 | 58.87329 | -19.18312 | 41516 ft | 467 kts | 288° |
| 2026-05-07 15:09 | 58.89236 | -19.30354 | 41556 ft | 468 kts | 287° |
| 2026-05-07 15:10 | 58.91138 | -19.42460 | 41601 ft | 472 kts | 287° |
| 2026-05-07 15:10 | 58.93033 | -19.54597 | 41646 ft | 469 kts | 287° |
| 2026-05-07 15:11 | 58.94906 | -19.66677 | 41683 ft | 468 kts | 287° |
| 2026-05-07 15:11 | 58.96765 | -19.78759 | 41737 ft | 469 kts | 288° |
| 2026-05-07 15:12 | 58.98607 | -19.90812 | 41777 ft | 471 kts | 287° |
| 2026-05-07 15:12 | 59.00720 | -20.02861 | 41893 ft | 470 kts | 297° |
| 2026-05-07 15:13 | 59.03581 | -20.14238 | 41931 ft | 465 kts | 296° |
| 2026-05-07 15:13 | 59.06418 | -20.25594 | 41977 ft | 467 kts | 296° |
| 2026-05-07 15:14 | 59.09267 | -20.37054 | 42020 ft | 471 kts | 296° |
| 2026-05-07 15:14 | 59.12115 | -20.48569 | 42076 ft | 475 kts | 296° |
| 2026-05-07 15:15 | 59.14931 | -20.60018 | 42103 ft | 467 kts | 296° |
| 2026-05-07 15:15 | 59.17748 | -20.71526 | 42121 ft | 473 kts | 296° |
| 2026-05-07 15:16 | 59.20576 | -20.83150 | 42124 ft | 474 kts | 296° |
| 2026-05-07 15:16 | 59.23374 | -20.94704 | 42124 ft | 474 kts | 296° |
| 2026-05-07 15:17 | 59.26135 | -21.06170 | 42118 ft | 470 kts | 296° |
| 2026-05-07 15:17 | 59.28932 | -21.17838 | 42125 ft | 477 kts | 296° |
| 2026-05-07 15:18 | 59.31735 | -21.29607 | 42130 ft | 475 kts | 296° |
| 2026-05-07 15:18 | 59.34533 | -21.41409 | 42142 ft | 480 kts | 295° |
| 2026-05-07 15:19 | 59.37340 | -21.53321 | 42150 ft | 479 kts | 295° |
| 2026-05-07 15:19 | 59.40102 | -21.65106 | 42150 ft | 481 kts | 295° |
| 2026-05-07 15:20 | 59.42893 | -21.77079 | 42159 ft | 482 kts | 295° |
| 2026-05-07 15:20 | 59.45666 | -21.89040 | 42154 ft | 477 kts | 295° |
| 2026-05-07 15:21 | 59.48413 | -22.00959 | 42151 ft | 481 kts | 295° |
| 2026-05-07 15:21 | 59.51167 | -22.12974 | 42158 ft | 481 kts | 295° |
| 2026-05-07 15:22 | 59.53910 | -22.25008 | 42157 ft | 480 kts | 295° |
| 2026-05-07 15:22 | 59.56635 | -22.37026 | 42159 ft | 480 kts | 295° |
| 2026-05-07 15:23 | 59.59347 | -22.49060 | 42162 ft | 479 kts | 295° |
| 2026-05-07 15:23 | 59.62026 | -22.61017 | 42164 ft | 479 kts | 295° |
| 2026-05-07 15:24 | 59.64716 | -22.73089 | 42168 ft | 481 kts | 295° |
| 2026-05-07 15:24 | 59.67398 | -22.85194 | 42169 ft | 479 kts | 295° |
| 2026-05-07 15:25 | 59.70057 | -22.97265 | 42172 ft | 478 kts | 295° |
| 2026-05-07 15:25 | 59.72704 | -23.09350 | 42172 ft | 478 kts | 295° |
| 2026-05-07 15:26 | 59.75343 | -23.21472 | 42179 ft | 478 kts | 294° |
| 2026-05-07 15:26 | 59.77970 | -23.33607 | 42179 ft | 479 kts | 294° |
| 2026-05-07 15:27 | 59.80588 | -23.45772 | 42177 ft | 479 kts | 294° |
| 2026-05-07 15:27 | 59.83181 | -23.57890 | 42191 ft | 478 kts | 294° |
| 2026-05-07 15:28 | 59.85770 | -23.70062 | 42172 ft | 477 kts | 294° |
| 2026-05-07 15:28 | 59.88345 | -23.82239 | 42187 ft | 477 kts | 294° |
| 2026-05-07 15:29 | 59.90906 | -23.94421 | 42195 ft | 477 kts | 294° |
| 2026-05-07 15:29 | 59.93459 | -24.06640 | 42193 ft | 477 kts | 294° |
| 2026-05-07 15:30 | 59.95999 | -24.18865 | 42205 ft | 477 kts | 294° |
| 2026-05-07 15:30 | 59.98511 | -24.31031 | 42210 ft | 477 kts | 294° |
| 2026-05-07 15:31 | 60.01031 | -24.43306 | 42205 ft | 478 kts | 294° |
| 2026-05-07 15:31 | 60.03542 | -24.55616 | 42217 ft | 478 kts | 294° |
| 2026-05-07 15:32 | 60.06043 | -24.67951 | 42213 ft | 477 kts | 294° |
| 2026-05-07 15:32 | 60.08522 | -24.80253 | 42221 ft | 475 kts | 294° |
| 2026-05-07 15:33 | 60.10987 | -24.92560 | 42222 ft | 476 kts | 294° |
| 2026-05-07 15:33 | 60.13440 | -25.04880 | 42227 ft | 476 kts | 294° |
| 2026-05-07 15:34 | 60.15885 | -25.17240 | 42227 ft | 477 kts | 294° |
| 2026-05-07 15:34 | 60.18323 | -25.29638 | 42230 ft | 477 kts | 293° |
| 2026-05-07 15:35 | 60.20753 | -25.42075 | 42242 ft | 478 kts | 293° |
| 2026-05-07 15:35 | 60.23172 | -25.54530 | 42241 ft | 478 kts | 293° |
| 2026-05-07 15:36 | 60.25553 | -25.66874 | 42237 ft | 475 kts | 293° |
| 2026-05-07 15:36 | 60.27933 | -25.79284 | 42247 ft | 475 kts | 293° |
| 2026-05-07 15:37 | 60.29905 | -25.89627 | 42247 ft | 475 kts | 293° |
| 2026-05-07 15:37 | 60.32266 | -26.02086 | 42249 ft | 476 kts | 293° |
| 2026-05-07 15:38 | 60.34620 | -26.14583 | 42259 ft | 477 kts | 293° |
| 2026-05-07 15:38 | 60.36966 | -26.27123 | 42261 ft | 477 kts | 293° |
| 2026-05-07 15:39 | 60.39287 | -26.39608 | 42266 ft | 476 kts | 292° |
| 2026-05-07 15:39 | 60.41607 | -26.52167 | 42262 ft | 475 kts | 293° |
| 2026-05-07 15:40 | 60.43904 | -26.64684 | 42266 ft | 473 kts | 292° |
| 2026-05-07 15:40 | 60.46186 | -26.77201 | 42282 ft | 474 kts | 292° |
| 2026-05-07 15:41 | 60.48464 | -26.89779 | 42290 ft | 476 kts | 292° |
| 2026-05-07 15:41 | 60.50734 | -27.02399 | 42294 ft | 476 kts | 292° |
| 2026-05-07 15:42 | 60.52977 | -27.14948 | 42299 ft | 476 kts | 292° |
| 2026-05-07 15:42 | 60.55220 | -27.27580 | 42301 ft | 475 kts | 292° |
| 2026-05-07 15:43 | 60.57451 | -27.40231 | 42302 ft | 475 kts | 292° |
| 2026-05-07 15:43 | 60.59665 | -27.52876 | 42289 ft | 473 kts | 292° |
| 2026-05-07 15:44 | 60.61861 | -27.65496 | 42294 ft | 472 kts | 292° |
| 2026-05-07 15:44 | 60.64045 | -27.78134 | 42296 ft | 472 kts | 292° |
| 2026-05-07 15:45 | 60.66216 | -27.90782 | 42298 ft | 472 kts | 292° |
| 2026-05-07 15:45 | 60.68376 | -28.03456 | 42299 ft | 473 kts | 292° |
| 2026-05-07 15:46 | 60.71581 | -28.22420 | 42309 ft | 473 kts | 291° |
| 2026-05-07 15:47 | 60.73712 | -28.35143 | 42310 ft | 474 kts | 291° |
| 2026-05-07 15:47 | 60.75834 | -28.47900 | 42300 ft | 474 kts | 291° |
| 2026-05-07 15:48 | 60.77933 | -28.60608 | 42309 ft | 470 kts | 291° |
| 2026-05-07 15:48 | 60.80020 | -28.73323 | 42318 ft | 471 kts | 291° |
| 2026-05-07 15:49 | 60.82097 | -28.86079 | 42319 ft | 472 kts | 291° |
| 2026-05-07 15:49 | 60.84165 | -28.98864 | 42321 ft | 472 kts | 291° |
| 2026-05-07 15:50 | 60.86206 | -29.11575 | 42322 ft | 472 kts | 291° |
| 2026-05-07 15:50 | 60.88246 | -29.24374 | 42332 ft | 471 kts | 291° |
| 2026-05-07 15:51 | 60.90272 | -29.37179 | 42335 ft | 471 kts | 291° |
| 2026-05-07 15:51 | 60.92287 | -29.50003 | 42335 ft | 471 kts | 291° |
| 2026-05-07 15:52 | 60.94288 | -29.62832 | 42338 ft | 471 kts | 291° |
| 2026-05-07 15:52 | 60.96282 | -29.75710 | 42341 ft | 472 kts | 291° |
| 2026-05-07 15:53 | 60.98246 | -29.88493 | 42340 ft | 472 kts | 290° |
| 2026-05-07 15:53 | 61.00201 | -30.01423 | 42340 ft | 473 kts | 288° |
| 2026-05-07 15:54 | 61.02026 | -30.14452 | 42357 ft | 473 kts | 290° |
| 2026-05-07 15:54 | 61.03853 | -30.27534 | 42359 ft | 474 kts | 289° |
| 2026-05-07 15:55 | 61.05651 | -30.40630 | 42362 ft | 474 kts | 289° |
| 2026-05-07 15:55 | 61.07440 | -30.53660 | 42355 ft | 470 kts | 289° |
| 2026-05-07 15:56 | 61.09201 | -30.66664 | 42354 ft | 470 kts | 289° |
| 2026-05-07 15:56 | 61.10946 | -30.79606 | 42358 ft | 471 kts | 289° |
| 2026-05-07 15:57 | 61.12688 | -30.92666 | 42364 ft | 471 kts | 289° |
| 2026-05-07 15:57 | 61.14421 | -31.05753 | 42365 ft | 471 kts | 289° |
| 2026-05-07 15:58 | 61.16143 | -31.18871 | 42368 ft | 472 kts | 289° |
| 2026-05-07 15:58 | 61.17853 | -31.32008 | 42371 ft | 472 kts | 288° |
| 2026-05-07 15:59 | 61.19538 | -31.45068 | 42377 ft | 470 kts | 289° |
| 2026-05-07 15:59 | 61.21212 | -31.58149 | 42375 ft | 468 kts | 288° |
| 2026-05-07 16:00 | 61.22870 | -31.71217 | 42375 ft | 468 kts | 288° |
| 2026-05-07 16:00 | 61.24516 | -31.84308 | 42381 ft | 468 kts | 288° |
| 2026-05-07 16:01 | 61.26150 | -31.97414 | 42381 ft | 469 kts | 288° |
| 2026-05-07 16:01 | 61.27772 | -32.10541 | 42383 ft | 469 kts | 288° |
| 2026-05-07 16:02 | 61.29384 | -32.23696 | 42383 ft | 469 kts | 288° |
| 2026-05-07 16:02 | 61.30982 | -32.36867 | 42384 ft | 470 kts | 288° |
| 2026-05-07 16:03 | 61.32560 | -32.49980 | 42389 ft | 468 kts | 288° |
| 2026-05-07 16:03 | 61.34129 | -32.63139 | 42387 ft | 468 kts | 288° |
| 2026-05-07 16:04 | 61.35683 | -32.76301 | 42387 ft | 468 kts | 288° |
| 2026-05-07 16:04 | 61.37230 | -32.89512 | 42397 ft | 469 kts | 288° |
| 2026-05-07 16:05 | 61.38768 | -33.02778 | 42402 ft | 470 kts | 287° |
| 2026-05-07 16:05 | 61.40291 | -33.16036 | 42400 ft | 470 kts | 287° |
| 2026-05-07 16:06 | 61.41803 | -33.29320 | 42404 ft | 470 kts | 287° |
| 2026-05-07 16:06 | 61.43291 | -33.42522 | 42404 ft | 470 kts | 287° |
| 2026-05-07 16:07 | 61.44773 | -33.55799 | 42394 ft | 468 kts | 287° |
| 2026-05-07 16:07 | 61.46239 | -33.69060 | 42397 ft | 468 kts | 287° |
| 2026-05-07 16:08 | 61.47692 | -33.82334 | 42399 ft | 468 kts | 287° |
| 2026-05-07 16:08 | 61.49136 | -33.95650 | 42396 ft | 468 kts | 287° |
| 2026-05-07 16:09 | 61.50564 | -34.08956 | 42396 ft | 468 kts | 287° |
| 2026-05-07 16:09 | 61.51979 | -34.22277 | 42396 ft | 468 kts | 286° |
| 2026-05-07 16:10 | 61.53372 | -34.35517 | 42395 ft | 469 kts | 286° |
| 2026-05-07 16:10 | 61.54762 | -34.48867 | 42378 ft | 468 kts | 286° |
| 2026-05-07 16:11 | 61.56140 | -34.62230 | 42402 ft | 470 kts | 286° |
| 2026-05-07 16:11 | 61.57511 | -34.75682 | 42396 ft | 471 kts | 286° |
| 2026-05-07 16:12 | 61.58868 | -34.89131 | 42397 ft | 471 kts | 286° |
| 2026-05-07 16:12 | 61.60212 | -35.02588 | 42398 ft | 471 kts | 285° |
| 2026-05-07 16:13 | 61.61543 | -35.16066 | 42396 ft | 471 kts | 285° |
| 2026-05-07 16:13 | 61.62853 | -35.29469 | 42397 ft | 471 kts | 285° |
| 2026-05-07 16:14 | 61.64157 | -35.42960 | 42382 ft | 471 kts | 285° |
| 2026-05-07 16:14 | 61.65447 | -35.56460 | 42384 ft | 468 kts | 285° |
| 2026-05-07 16:15 | 61.66713 | -35.69858 | 42388 ft | 466 kts | 285° |
| 2026-05-07 16:15 | 61.67968 | -35.83281 | 42384 ft | 467 kts | 284° |
| 2026-05-07 16:16 | 61.69213 | -35.96748 | 42387 ft | 469 kts | 284° |
| 2026-05-07 16:16 | 61.70446 | -36.10248 | 42386 ft | 469 kts | 284° |
| 2026-05-07 16:17 | 61.71664 | -36.23738 | 42383 ft | 468 kts | 284° |
| 2026-05-07 16:17 | 61.72868 | -36.37222 | 42389 ft | 467 kts | 284° |
| 2026-05-07 16:18 | 61.74054 | -36.50673 | 42378 ft | 466 kts | 284° |
| 2026-05-07 16:18 | 61.75210 | -36.63957 | 42368 ft | 459 kts | 283° |
| 2026-05-07 16:19 | 61.76357 | -36.77244 | 42372 ft | 462 kts | 283° |
| 2026-05-07 16:19 | 61.77493 | -36.90615 | 42368 ft | 462 kts | 283° |
| 2026-05-07 16:20 | 61.78617 | -37.03975 | 42363 ft | 461 kts | 283° |
| 2026-05-07 16:20 | 61.79725 | -37.17320 | 42364 ft | 460 kts | 283° |
| 2026-05-07 16:21 | 61.80818 | -37.30645 | 42359 ft | 460 kts | 283° |
| 2026-05-07 16:21 | 61.81891 | -37.43908 | 42353 ft | 460 kts | 283° |
| 2026-05-07 16:22 | 61.82959 | -37.57264 | 42358 ft | 460 kts | 282° |
| 2026-05-07 16:22 | 61.84018 | -37.70668 | 42360 ft | 464 kts | 282° |
| 2026-05-07 16:23 | 61.85067 | -37.84151 | 42360 ft | 463 kts | 282° |
| 2026-05-07 16:23 | 61.86102 | -37.97607 | 42363 ft | 462 kts | 282° |
| 2026-05-07 16:24 | 61.87123 | -38.11066 | 42360 ft | 462 kts | 282° |
| 2026-05-07 16:24 | 61.88130 | -38.24526 | 42353 ft | 462 kts | 282° |
| 2026-05-07 16:25 | 61.89121 | -38.37960 | 42354 ft | 465 kts | 282° |
| 2026-05-07 16:25 | 61.90107 | -38.51516 | 42348 ft | 465 kts | 281° |
| 2026-05-07 16:26 | 61.91081 | -38.65094 | 42356 ft | 465 kts | 281° |
| 2026-05-07 16:26 | 61.92039 | -38.78650 | 42341 ft | 464 kts | 281° |
| 2026-05-07 16:27 | 61.92833 | -38.90027 | 42341 ft | 465 kts | 281° |
| 2026-05-07 16:27 | 61.93762 | -39.03522 | 42339 ft | 465 kts | 281° |
| 2026-05-07 16:28 | 61.94685 | -39.17129 | 42341 ft | 465 kts | 280° |
| 2026-05-07 16:28 | 61.95595 | -39.30769 | 42342 ft | 466 kts | 280° |
| 2026-05-07 16:29 | 61.96492 | -39.44409 | 42341 ft | 465 kts | 280° |
| 2026-05-07 16:29 | 61.97373 | -39.58026 | 42330 ft | 464 kts | 280° |
| 2026-05-07 16:30 | 61.98240 | -39.71630 | 42335 ft | 464 kts | 280° |
| 2026-05-07 16:30 | 61.99094 | -39.85265 | 42335 ft | 465 kts | 279° |
| 2026-05-07 16:31 | 61.99960 | -39.98925 | 42329 ft | 465 kts | 284° |
| 2026-05-07 16:31 | 62.01694 | -40.12146 | 42337 ft | 464 kts | 288° |
| 2026-05-07 16:32 | 62.03527 | -40.25316 | 42333 ft | 463 kts | 288° |
| 2026-05-07 16:32 | 62.05334 | -40.38489 | 42338 ft | 463 kts | 288° |
| 2026-05-07 16:33 | 62.07123 | -40.51588 | 42331 ft | 463 kts | 288° |
| 2026-05-07 16:33 | 62.08906 | -40.64785 | 42331 ft | 463 kts | 288° |
| 2026-05-07 16:34 | 62.10679 | -40.77994 | 42334 ft | 463 kts | 288° |
| 2026-05-07 16:34 | 62.12438 | -40.91218 | 42319 ft | 464 kts | 287° |
| 2026-05-07 16:35 | 62.14195 | -41.04533 | 42311 ft | 466 kts | 287° |
| 2026-05-07 16:35 | 62.15946 | -41.17916 | 42313 ft | 466 kts | 287° |
| 2026-05-07 16:36 | 62.17681 | -41.31292 | 42309 ft | 466 kts | 287° |
| 2026-05-07 16:36 | 62.19389 | -41.44578 | 42304 ft | 465 kts | 286° |
| 2026-05-07 16:37 | 62.21092 | -41.57936 | 42301 ft | 464 kts | 286° |
| 2026-05-07 16:37 | 62.22785 | -41.71325 | 42301 ft | 465 kts | 286° |
| 2026-05-07 16:38 | 62.24470 | -41.84782 | 42303 ft | 468 kts | 286° |
| 2026-05-07 16:38 | 62.26146 | -41.98273 | 42310 ft | 467 kts | 285° |
| 2026-05-07 16:39 | 62.27795 | -42.11675 | 42304 ft | 467 kts | 285° |
| 2026-05-07 16:39 | 62.29440 | -42.25161 | 42299 ft | 466 kts | 285° |
| 2026-05-07 16:40 | 62.31072 | -42.38666 | 42308 ft | 467 kts | 285° |
| 2026-05-07 16:40 | 62.32694 | -42.52203 | 42308 ft | 468 kts | 284° |
| 2026-05-07 16:41 | 62.34308 | -42.65809 | 42302 ft | 470 kts | 284° |
| 2026-05-07 16:41 | 62.35910 | -42.79438 | 42302 ft | 469 kts | 284° |
| 2026-05-07 16:42 | 62.37487 | -42.92976 | 42293 ft | 469 kts | 284° |
| 2026-05-07 16:42 | 62.39061 | -43.06622 | 42292 ft | 469 kts | 284° |
| 2026-05-07 16:43 | 62.40622 | -43.20280 | 42253 ft | 469 kts | 284° |
| 2026-05-07 16:43 | 62.42171 | -43.33970 | 42255 ft | 470 kts | 284° |
| 2026-05-07 16:44 | 62.43711 | -43.47707 | 42247 ft | 471 kts | 283° |
| 2026-05-07 16:44 | 62.45238 | -43.61466 | 42223 ft | 471 kts | 283° |
| 2026-05-07 16:45 | 62.46749 | -43.75223 | 42195 ft | 471 kts | 283° |
| 2026-05-07 16:45 | 62.48241 | -43.88940 | 42190 ft | 471 kts | 283° |
| 2026-05-07 16:46 | 62.49729 | -44.02757 | 42191 ft | 472 kts | 283° |
| 2026-05-07 16:46 | 62.51207 | -44.16622 | 42203 ft | 472 kts | 282° |
| 2026-05-07 16:47 | 62.52670 | -44.30486 | 42220 ft | 473 kts | 282° |
| 2026-05-07 16:47 | 62.54123 | -44.44402 | 42221 ft | 473 kts | 282° |
| 2026-05-07 16:48 | 62.55559 | -44.58302 | 42228 ft | 472 kts | 282° |
| 2026-05-07 16:48 | 62.56978 | -44.72185 | 42213 ft | 471 kts | 282° |
| 2026-05-07 16:49 | 62.58374 | -44.85991 | 42242 ft | 472 kts | 282° |
| 2026-05-07 16:49 | 62.59768 | -44.99918 | 42237 ft | 473 kts | 281° |
| 2026-05-07 16:50 | 62.61147 | -45.13853 | 42241 ft | 469 kts | 281° |
| 2026-05-07 16:50 | 62.62501 | -45.27688 | 42235 ft | 469 kts | 281° |
| 2026-05-07 16:51 | 62.63846 | -45.41583 | 42246 ft | 470 kts | 281° |
| 2026-05-07 16:51 | 62.65179 | -45.55508 | 42233 ft | 470 kts | 281° |
| 2026-05-07 16:52 | 62.66489 | -45.69345 | 42227 ft | 470 kts | 280° |
| 2026-05-07 16:52 | 62.67793 | -45.83282 | 42221 ft | 469 kts | 280° |
| 2026-05-07 16:53 | 62.69087 | -45.97276 | 42218 ft | 472 kts | 279° |
| 2026-05-07 16:53 | 62.70370 | -46.11294 | 42209 ft | 472 kts | 279° |
| 2026-05-07 16:54 | 62.71636 | -46.25317 | 42219 ft | 472 kts | 279° |
| 2026-05-07 16:54 | 62.72881 | -46.39258 | 42221 ft | 472 kts | 279° |
| 2026-05-07 16:55 | 62.74125 | -46.53358 | 42210 ft | 473 kts | 279° |
| 2026-05-07 16:55 | 62.75355 | -46.67469 | 42208 ft | 472 kts | 279° |
| 2026-05-07 16:56 | 62.76567 | -46.81557 | 42198 ft | 472 kts | 278° |
| 2026-05-07 16:56 | 62.78356 | -47.02673 | 42199 ft | 472 kts | 278° |
| 2026-05-07 16:57 | 62.79533 | -47.16778 | 42197 ft | 473 kts | 278° |
| 2026-05-07 16:57 | 62.80688 | -47.30811 | 42195 ft | 471 kts | 278° |
| 2026-05-07 16:58 | 62.81833 | -47.44896 | 42191 ft | 470 kts | 277° |
| 2026-05-07 16:58 | 62.82967 | -47.59044 | 42185 ft | 473 kts | 277° |
| 2026-05-07 16:59 | 62.84095 | -47.73281 | 42191 ft | 473 kts | 277° |
| 2026-05-07 16:59 | 62.85203 | -47.87479 | 42179 ft | 472 kts | 276° |
| 2026-05-07 17:00 | 62.86282 | -48.01497 | 42174 ft | 470 kts | 276° |
| 2026-05-07 17:00 | 62.87359 | -48.15674 | 42177 ft | 474 kts | 276° |
| 2026-05-07 17:01 | 62.88424 | -48.29877 | 42178 ft | 471 kts | 276° |
| 2026-05-07 17:01 | 62.89465 | -48.44012 | 42176 ft | 470 kts | 277° |
| 2026-05-07 17:02 | 62.90497 | -48.58184 | 42171 ft | 472 kts | 277° |
| 2026-05-07 17:02 | 62.91522 | -48.72443 | 42180 ft | 470 kts | 276° |
| 2026-05-07 17:03 | 62.92520 | -48.86581 | 42176 ft | 468 kts | 276° |
| 2026-05-07 17:03 | 62.93506 | -49.00750 | 42172 ft | 471 kts | 276° |
| 2026-05-07 17:04 | 62.94479 | -49.14921 | 42177 ft | 471 kts | 276° |
| 2026-05-07 17:04 | 62.95442 | -49.29190 | 42172 ft | 474 kts | 276° |
| 2026-05-07 17:05 | 62.96403 | -49.43645 | 42175 ft | 481 kts | 276° |
| 2026-05-07 17:05 | 62.97355 | -49.58197 | 42174 ft | 480 kts | 276° |
| 2026-05-07 17:06 | 62.98291 | -49.72756 | 42166 ft | 480 kts | 276° |
| 2026-05-07 17:06 | 62.99211 | -49.87301 | 42167 ft | 480 kts | 276° |
| 2026-05-07 17:07 | 62.99672 | -50.01803 | 42188 ft | 477 kts | 262° |
| 2026-05-07 17:07 | 62.98435 | -50.16117 | 42189 ft | 475 kts | 256° |
| 2026-05-07 17:08 | 62.97021 | -50.30367 | 42162 ft | 478 kts | 256° |
| 2026-05-07 17:08 | 62.95602 | -50.44637 | 42159 ft | 477 kts | 256° |
| 2026-05-07 17:09 | 62.94174 | -50.58767 | 42158 ft | 473 kts | 256° |
| 2026-05-07 17:09 | 62.92736 | -50.72877 | 42150 ft | 474 kts | 255° |
| 2026-05-07 17:10 | 62.91280 | -50.87000 | 42156 ft | 473 kts | 255° |
| 2026-05-07 17:10 | 62.89810 | -51.01111 | 42148 ft | 475 kts | 255° |
| 2026-05-07 17:11 | 62.88328 | -51.15185 | 42147 ft | 475 kts | 255° |
| 2026-05-07 17:11 | 62.86840 | -51.29167 | 42151 ft | 474 kts | 255° |
| 2026-05-07 17:12 | 62.85331 | -51.43215 | 42125 ft | 465 kts | 253° |
| 2026-05-07 17:12 | 62.83828 | -51.57046 | 42120 ft | 467 kts | 253° |
| 2026-05-07 17:13 | 62.82311 | -51.70891 | 42119 ft | 469 kts | 254° |
| 2026-05-07 17:13 | 62.80790 | -51.84607 | 42118 ft | 467 kts | 253° |
| 2026-05-07 17:14 | 62.79246 | -51.98412 | 42116 ft | 466 kts | 253° |
| 2026-05-07 17:14 | 62.77689 | -52.12217 | 42107 ft | 468 kts | 253° |
| 2026-05-07 17:15 | 62.76369 | -52.23778 | 42111 ft | 470 kts | 253° |
| 2026-05-07 17:15 | 62.74794 | -52.37478 | 42104 ft | 467 kts | 253° |
| 2026-05-07 17:16 | 62.73197 | -52.51244 | 42099 ft | 466 kts | 253° |
| 2026-05-07 17:16 | 62.71582 | -52.64997 | 42106 ft | 471 kts | 252° |
| 2026-05-07 17:17 | 62.69944 | -52.78867 | 42104 ft | 474 kts | 253° |
| 2026-05-07 17:17 | 62.68288 | -52.92729 | 42089 ft | 473 kts | 253° |
| 2026-05-07 17:18 | 62.66615 | -53.06602 | 42095 ft | 472 kts | 252° |
| 2026-05-07 17:18 | 62.64929 | -53.20468 | 42087 ft | 474 kts | 252° |
| 2026-05-07 17:19 | 62.63226 | -53.34339 | 42079 ft | 476 kts | 252° |
| 2026-05-07 17:19 | 62.61522 | -53.48089 | 42066 ft | 475 kts | 252° |
| 2026-05-07 17:20 | 62.59793 | -53.61915 | 42067 ft | 474 kts | 252° |
| 2026-05-07 17:20 | 62.58047 | -53.75746 | 42071 ft | 474 kts | 252° |
| 2026-05-07 17:21 | 62.56286 | -53.89588 | 42051 ft | 477 kts | 252° |
| 2026-05-07 17:21 | 62.54501 | -54.03478 | 42053 ft | 479 kts | 252° |
| 2026-05-07 17:22 | 62.52700 | -54.17377 | 42049 ft | 479 kts | 252° |
| 2026-05-07 17:22 | 62.50888 | -54.31235 | 42040 ft | 478 kts | 252° |
| 2026-05-07 17:23 | 62.49072 | -54.45001 | 42041 ft | 478 kts | 252° |
| 2026-05-07 17:23 | 62.47222 | -54.58909 | 42038 ft | 478 kts | 251° |
| 2026-05-07 17:24 | 62.45367 | -54.72727 | 42028 ft | 478 kts | 251° |
| 2026-05-07 17:24 | 62.43502 | -54.86508 | 42018 ft | 478 kts | 251° |
| 2026-05-07 17:25 | 62.41639 | -55.00155 | 42025 ft | 477 kts | 251° |
| 2026-05-07 17:25 | 62.39744 | -55.13919 | 42024 ft | 479 kts | 251° |
| 2026-05-07 17:26 | 62.37835 | -55.27671 | 42013 ft | 478 kts | 251° |
| 2026-05-07 17:26 | 62.35916 | -55.41374 | 42013 ft | 477 kts | 251° |
| 2026-05-07 17:27 | 62.33989 | -55.55027 | 42004 ft | 477 kts | 250° |
| 2026-05-07 17:27 | 62.32058 | -55.68594 | 41999 ft | 478 kts | 250° |
| 2026-05-07 17:28 | 62.30100 | -55.82249 | 41994 ft | 477 kts | 250° |
| 2026-05-07 17:28 | 62.28131 | -55.95858 | 41988 ft | 476 kts | 250° |
| 2026-05-07 17:29 | 62.26150 | -56.09443 | 41992 ft | 476 kts | 250° |
| 2026-05-07 17:29 | 62.24145 | -56.23076 | 41985 ft | 481 kts | 250° |
| 2026-05-07 17:30 | 62.22122 | -56.36742 | 41989 ft | 480 kts | 250° |
| 2026-05-07 17:30 | 62.20103 | -56.50255 | 41985 ft | 479 kts | 250° |
| 2026-05-07 17:31 | 62.18061 | -56.63826 | 41978 ft | 478 kts | 249° |
| 2026-05-07 17:31 | 62.16009 | -56.77350 | 41976 ft | 478 kts | 249° |
| 2026-05-07 17:32 | 62.13940 | -56.90882 | 41967 ft | 479 kts | 249° |
| 2026-05-07 17:32 | 62.11855 | -57.04415 | 41970 ft | 480 kts | 249° |
| 2026-05-07 17:33 | 62.09756 | -57.17936 | 41972 ft | 479 kts | 249° |
| 2026-05-07 17:33 | 62.07643 | -57.31443 | 41956 ft | 481 kts | 249° |
| 2026-05-07 17:34 | 62.05506 | -57.45004 | 41964 ft | 481 kts | 249° |
| 2026-05-07 17:34 | 62.03363 | -57.58492 | 41949 ft | 480 kts | 248° |
| 2026-05-07 17:35 | 62.01211 | -57.71938 | 41948 ft | 479 kts | 248° |
| 2026-05-07 17:35 | 61.99046 | -57.85366 | 41948 ft | 480 kts | 248° |
| 2026-05-07 17:36 | 61.96902 | -57.98740 | 41945 ft | 482 kts | 253° |
| 2026-05-07 17:36 | 61.95710 | -58.12816 | 41942 ft | 485 kts | 258° |
| 2026-05-07 17:37 | 61.94649 | -58.26981 | 41947 ft | 485 kts | 258° |
| 2026-05-07 17:37 | 61.93559 | -58.41156 | 41936 ft | 488 kts | 258° |
| 2026-05-07 17:38 | 61.92458 | -58.55380 | 41935 ft | 488 kts | 257° |
| 2026-05-07 17:38 | 61.91339 | -58.69575 | 41929 ft | 487 kts | 257° |
| 2026-05-07 17:39 | 61.90210 | -58.83746 | 41922 ft | 487 kts | 257° |
| 2026-05-07 17:39 | 61.89073 | -58.97792 | 41921 ft | 486 kts | 257° |
| 2026-05-07 17:40 | 61.87915 | -59.11925 | 41920 ft | 486 kts | 257° |
| 2026-05-07 17:40 | 61.86745 | -59.26022 | 41911 ft | 485 kts | 257° |
| 2026-05-07 17:41 | 61.85560 | -59.40098 | 41912 ft | 485 kts | 257° |
| 2026-05-07 17:41 | 61.84364 | -59.54137 | 41900 ft | 484 kts | 257° |
| 2026-05-07 17:42 | 61.83152 | -59.68183 | 41903 ft | 486 kts | 257° |
| 2026-05-07 17:42 | 61.81929 | -59.82180 | 41905 ft | 487 kts | 256° |
| 2026-05-07 17:43 | 61.80685 | -59.96240 | 41900 ft | 486 kts | 256° |
| 2026-05-07 17:43 | 61.79429 | -60.10262 | 41899 ft | 485 kts | 256° |
| 2026-05-07 17:44 | 61.78158 | -60.24278 | 41895 ft | 487 kts | 256° |
| 2026-05-07 17:44 | 61.76863 | -60.38397 | 41898 ft | 489 kts | 256° |
| 2026-05-07 17:45 | 61.75558 | -60.52452 | 41889 ft | 486 kts | 256° |
| 2026-05-07 17:45 | 61.74242 | -60.66451 | 41880 ft | 485 kts | 256° |
| 2026-05-07 17:46 | 61.72914 | -60.80422 | 41878 ft | 486 kts | 256° |
| 2026-05-07 17:46 | 61.71571 | -60.94392 | 41879 ft | 486 kts | 256° |
| 2026-05-07 17:47 | 61.70222 | -61.08262 | 41875 ft | 486 kts | 255° |
| 2026-05-07 17:47 | 61.68847 | -61.22234 | 41884 ft | 489 kts | 255° |
| 2026-05-07 17:48 | 61.67452 | -61.36266 | 41874 ft | 489 kts | 255° |
| 2026-05-07 17:48 | 61.66045 | -61.50256 | 41873 ft | 488 kts | 255° |
| 2026-05-07 17:49 | 61.64625 | -61.64219 | 41874 ft | 488 kts | 255° |
| 2026-05-07 17:49 | 61.63192 | -61.78156 | 41867 ft | 488 kts | 255° |
| 2026-05-07 17:50 | 61.61744 | -61.92087 | 41870 ft | 487 kts | 255° |
| 2026-05-07 17:50 | 61.60284 | -62.05990 | 41876 ft | 487 kts | 255° |
| 2026-05-07 17:51 | 61.58799 | -62.19971 | 41864 ft | 493 kts | 255° |
| 2026-05-07 17:51 | 61.57307 | -62.33894 | 41866 ft | 491 kts | 255° |
| 2026-05-07 17:52 | 61.55793 | -62.47857 | 41852 ft | 490 kts | 254° |
| 2026-05-07 17:52 | 61.54270 | -62.61760 | 41850 ft | 488 kts | 254° |
| 2026-05-07 17:53 | 61.52736 | -62.75627 | 41851 ft | 488 kts | 254° |
| 2026-05-07 17:53 | 61.51186 | -62.89491 | 41845 ft | 488 kts | 254° |
| 2026-05-07 17:54 | 61.50327 | -63.03622 | 41872 ft | 497 kts | 271° |
| 2026-05-07 17:54 | 61.51161 | -63.18107 | 41851 ft | 501 kts | 275° |
| 2026-05-07 17:55 | 61.52082 | -63.32551 | 41852 ft | 500 kts | 275° |
| 2026-05-07 17:55 | 61.52965 | -63.46894 | 41848 ft | 499 kts | 275° |
| 2026-05-07 17:56 | 61.53849 | -63.61339 | 41844 ft | 499 kts | 274° |
| 2026-05-07 17:56 | 61.54711 | -63.75784 | 41833 ft | 500 kts | 275° |
| 2026-05-07 17:57 | 61.55422 | -63.87862 | 41839 ft | 503 kts | 274° |
| 2026-05-07 17:57 | 61.56405 | -64.04888 | 41836 ft | 503 kts | 274° |
| 2026-05-07 17:58 | 61.57228 | -64.19454 | 41836 ft | 502 kts | 274° |
| 2026-05-07 17:58 | 61.58036 | -64.34027 | 41831 ft | 502 kts | 274° |
| 2026-05-07 17:59 | 61.58827 | -64.48585 | 41829 ft | 503 kts | 274° |
| 2026-05-07 17:59 | 61.59606 | -64.63200 | 41824 ft | 504 kts | 274° |
| 2026-05-07 18:00 | 61.60370 | -64.77850 | 41823 ft | 505 kts | 274° |
| 2026-05-07 18:00 | 61.61118 | -64.92502 | 41821 ft | 504 kts | 274° |
| 2026-05-07 18:01 | 61.61728 | -65.04673 | 41819 ft | 503 kts | 274° |
| 2026-05-07 18:01 | 61.62562 | -65.21702 | 41819 ft | 503 kts | 274° |
| 2026-05-07 18:02 | 61.63494 | -65.41279 | 41815 ft | 505 kts | 274° |
| 2026-05-07 18:03 | 61.64176 | -65.56002 | 41813 ft | 505 kts | 273° |
| 2026-05-07 18:03 | 61.64843 | -65.70737 | 41813 ft | 505 kts | 273° |
| 2026-05-07 18:04 | 61.65494 | -65.85475 | 41814 ft | 506 kts | 273° |
| 2026-05-07 18:04 | 61.66124 | -66.00129 | 41809 ft | 506 kts | 273° |
| 2026-05-07 18:05 | 61.66744 | -66.14890 | 41802 ft | 505 kts | 273° |
| 2026-05-07 18:05 | 61.67346 | -66.29602 | 41794 ft | 503 kts | 273° |
| 2026-05-07 18:06 | 61.67930 | -66.44288 | 41792 ft | 503 kts | 272° |
| 2026-05-07 18:06 | 61.68496 | -66.58912 | 41793 ft | 504 kts | 272° |
| 2026-05-07 18:07 | 61.69051 | -66.73652 | 41802 ft | 505 kts | 272° |
| 2026-05-07 18:07 | 61.69591 | -66.88425 | 41797 ft | 505 kts | 272° |
| 2026-05-07 18:08 | 61.70000 | -67.03209 | 41814 ft | 503 kts | 268° |
| 2026-05-07 18:08 | 61.69902 | -67.17975 | 41783 ft | 503 kts | 267° |
| 2026-05-07 18:09 | 61.69814 | -67.32713 | 41778 ft | 503 kts | 267° |
| 2026-05-07 18:09 | 61.69702 | -67.47355 | 41777 ft | 502 kts | 267° |
| 2026-05-07 18:10 | 61.69575 | -67.62083 | 41775 ft | 502 kts | 267° |
| 2026-05-07 18:10 | 61.69434 | -67.76798 | 41774 ft | 502 kts | 266° |
| 2026-05-07 18:11 | 61.69275 | -67.91493 | 41767 ft | 502 kts | 266° |
| 2026-05-07 18:11 | 61.69102 | -68.06214 | 41771 ft | 502 kts | 266° |
| 2026-05-07 18:12 | 61.68912 | -68.20932 | 41769 ft | 503 kts | 266° |
| 2026-05-07 18:12 | 61.68706 | -68.35702 | 41771 ft | 505 kts | 266° |
| 2026-05-07 18:13 | 61.68485 | -68.50390 | 41767 ft | 505 kts | 266° |
| 2026-05-07 18:13 | 61.68248 | -68.65152 | 41755 ft | 504 kts | 266° |
| 2026-05-07 18:14 | 61.67994 | -68.79903 | 41754 ft | 504 kts | 266° |
| 2026-05-07 18:14 | 61.67725 | -68.94641 | 41742 ft | 503 kts | 266° |
| 2026-05-07 18:15 | 61.67439 | -69.09389 | 41749 ft | 506 kts | 265° |
| 2026-05-07 18:15 | 61.67136 | -69.24225 | 41729 ft | 507 kts | 265° |
| 2026-05-07 18:16 | 61.66818 | -69.39028 | 41730 ft | 506 kts | 265° |
| 2026-05-07 18:16 | 61.66486 | -69.53740 | 41718 ft | 505 kts | 265° |
| 2026-05-07 18:17 | 61.66136 | -69.68522 | 41718 ft | 505 kts | 265° |
| 2026-05-07 18:17 | 61.65770 | -69.83307 | 41717 ft | 508 kts | 264° |
| 2026-05-07 18:18 | 61.65387 | -69.98164 | 41710 ft | 507 kts | 265° |
| 2026-05-07 18:18 | 61.64988 | -70.12940 | 41702 ft | 506 kts | 265° |
| 2026-05-07 18:19 | 61.64574 | -70.27729 | 41704 ft | 506 kts | 265° |
| 2026-05-07 18:19 | 61.64146 | -70.42435 | 41694 ft | 506 kts | 264° |
| 2026-05-07 18:20 | 61.63699 | -70.57226 | 41702 ft | 507 kts | 264° |
| 2026-05-07 18:20 | 61.63236 | -70.72050 | 41679 ft | 508 kts | 264° |
| 2026-05-07 18:21 | 61.62756 | -70.86861 | 41678 ft | 508 kts | 264° |
| 2026-05-07 18:21 | 61.62261 | -71.01680 | 41667 ft | 507 kts | 264° |
| 2026-05-07 18:22 | 61.61753 | -71.16367 | 41665 ft | 507 kts | 264° |
| 2026-05-07 18:22 | 61.61227 | -71.31132 | 41641 ft | 507 kts | 264° |
| 2026-05-07 18:23 | 61.60683 | -71.45952 | 41617 ft | 509 kts | 264° |
| 2026-05-07 18:23 | 61.60122 | -71.60778 | 41601 ft | 509 kts | 264° |
| 2026-05-07 18:24 | 61.59546 | -71.75593 | 41590 ft | 508 kts | 263° |
| 2026-05-07 18:24 | 61.58954 | -71.90372 | 41589 ft | 507 kts | 262° |
| 2026-05-07 18:25 | 61.57680 | -72.04898 | 41605 ft | 506 kts | 256° |
| 2026-05-07 18:25 | 61.56211 | -72.19396 | 41626 ft | 509 kts | 256° |
| 2026-05-07 18:26 | 61.54761 | -72.33936 | 41609 ft | 509 kts | 256° |
| 2026-05-07 18:26 | 61.53269 | -72.48434 | 41607 ft | 509 kts | 256° |
| 2026-05-07 18:27 | 61.51789 | -72.62830 | 41607 ft | 509 kts | 256° |
| 2026-05-07 18:27 | 61.50272 | -72.77306 | 41604 ft | 508 kts | 255° |
| 2026-05-07 18:28 | 61.48750 | -72.91755 | 41608 ft | 509 kts | 255° |
| 2026-05-07 18:28 | 61.47198 | -73.06263 | 41624 ft | 510 kts | 255° |
| 2026-05-07 18:29 | 61.45637 | -73.20746 | 41604 ft | 510 kts | 255° |
| 2026-05-07 18:29 | 61.44058 | -73.35216 | 41606 ft | 510 kts | 256° |
| 2026-05-07 18:30 | 61.42468 | -73.49639 | 41607 ft | 510 kts | 255° |
| 2026-05-07 18:30 | 61.40860 | -73.64063 | 41604 ft | 511 kts | 255° |
| 2026-05-07 18:31 | 61.39232 | -73.78518 | 41610 ft | 512 kts | 255° |
| 2026-05-07 18:31 | 61.37601 | -73.92845 | 41601 ft | 510 kts | 255° |
| 2026-05-07 18:32 | 61.35947 | -74.07246 | 41599 ft | 510 kts | 254° |
| 2026-05-07 18:32 | 61.34273 | -74.21647 | 41593 ft | 510 kts | 254° |
| 2026-05-07 18:33 | 61.32587 | -74.36028 | 41593 ft | 510 kts | 254° |
| 2026-05-07 18:33 | 61.30885 | -74.50375 | 41587 ft | 510 kts | 254° |
| 2026-05-07 18:34 | 61.29165 | -74.64758 | 41588 ft | 513 kts | 254° |
| 2026-05-07 18:34 | 61.27426 | -74.79138 | 41581 ft | 513 kts | 254° |
| 2026-05-07 18:35 | 61.25686 | -74.93389 | 41580 ft | 513 kts | 254° |
| 2026-05-07 18:35 | 61.23919 | -75.07724 | 41581 ft | 513 kts | 253° |
| 2026-05-07 18:36 | 61.22137 | -75.22049 | 41571 ft | 513 kts | 253° |
| 2026-05-07 18:36 | 61.20339 | -75.36349 | 41568 ft | 511 kts | 253° |
| 2026-05-07 18:37 | 61.18531 | -75.50622 | 41562 ft | 512 kts | 253° |
| 2026-05-07 18:37 | 61.16701 | -75.64888 | 41564 ft | 512 kts | 253° |
| 2026-05-07 18:38 | 61.14864 | -75.79120 | 41560 ft | 509 kts | 252° |
| 2026-05-07 18:38 | 61.13013 | -75.93294 | 41560 ft | 510 kts | 253° |
| 2026-05-07 18:39 | 61.11145 | -76.07498 | 41545 ft | 513 kts | 253° |
| 2026-05-07 18:39 | 61.09252 | -76.21733 | 41546 ft | 512 kts | 253° |
| 2026-05-07 18:40 | 61.07352 | -76.35917 | 41534 ft | 512 kts | 252° |
| 2026-05-07 18:40 | 61.05432 | -76.50086 | 41534 ft | 513 kts | 253° |
| 2026-05-07 18:41 | 61.03498 | -76.64269 | 41528 ft | 513 kts | 252° |
| 2026-05-07 18:41 | 61.01561 | -76.78322 | 41537 ft | 513 kts | 253° |
| 2026-05-07 18:42 | 60.99598 | -76.92473 | 41527 ft | 514 kts | 252° |
| 2026-05-07 18:42 | 60.97610 | -77.06652 | 41522 ft | 515 kts | 252° |
| 2026-05-07 18:43 | 60.95616 | -77.20765 | 41527 ft | 514 kts | 252° |
| 2026-05-07 18:43 | 60.93607 | -77.34855 | 41513 ft | 514 kts | 252° |
| 2026-05-07 18:44 | 60.91583 | -77.48928 | 41512 ft | 514 kts | 252° |
| 2026-05-07 18:44 | 60.89543 | -77.62987 | 41506 ft | 515 kts | 252° |
| 2026-05-07 18:45 | 60.87487 | -77.77045 | 41508 ft | 515 kts | 251° |
| 2026-05-07 18:45 | 60.85413 | -77.91111 | 41478 ft | 516 kts | 251° |
| 2026-05-07 18:46 | 60.83320 | -78.05166 | 41476 ft | 516 kts | 251° |
| 2026-05-07 18:46 | 60.82500 | -78.12324 | 41502 ft | 515 kts | 263° |
| 2026-05-07 18:46 | 60.82351 | -78.19656 | 41499 ft | 518 kts | 274° |
| 2026-05-07 18:47 | 60.83350 | -78.34293 | 41476 ft | 518 kts | 279° |
| 2026-05-07 18:47 | 60.84468 | -78.48800 | 41478 ft | 515 kts | 278° |
| 2026-05-07 18:48 | 60.85528 | -78.63280 | 41477 ft | 519 kts | 278° |
| 2026-05-07 18:48 | 60.86607 | -78.77882 | 41472 ft | 516 kts | 278° |
| 2026-05-07 18:49 | 60.87650 | -78.92448 | 41466 ft | 516 kts | 278° |
| 2026-05-07 18:49 | 60.88688 | -79.07041 | 41458 ft | 518 kts | 278° |
| 2026-05-07 18:50 | 60.89540 | -79.19241 | 41461 ft | 516 kts | 278° |
| 2026-05-07 18:50 | 60.90544 | -79.33815 | 41444 ft | 512 kts | 278° |
| 2026-05-07 18:51 | 60.91530 | -79.48374 | 41445 ft | 515 kts | 278° |
| 2026-05-07 18:51 | 60.92508 | -79.63053 | 41439 ft | 517 kts | 277° |
| 2026-05-07 18:52 | 60.93466 | -79.77689 | 41430 ft | 514 kts | 278° |
| 2026-05-07 18:52 | 60.94401 | -79.92218 | 41430 ft | 516 kts | 277° |
| 2026-05-07 18:53 | 60.95332 | -80.06926 | 41421 ft | 516 kts | 277° |
| 2026-05-07 18:53 | 60.96240 | -80.21554 | 41421 ft | 515 kts | 277° |
| 2026-05-07 18:54 | 60.97136 | -80.36237 | 41420 ft | 516 kts | 277° |
| 2026-05-07 18:54 | 60.98012 | -80.50868 | 41411 ft | 513 kts | 277° |
| 2026-05-07 18:55 | 60.98871 | -80.65473 | 41398 ft | 514 kts | 277° |
| 2026-05-07 18:55 | 60.99715 | -80.80129 | 41398 ft | 515 kts | 277° |
| 2026-05-07 18:56 | 61.00544 | -80.94784 | 41402 ft | 515 kts | 277° |
| 2026-05-07 18:56 | 61.01351 | -81.09341 | 41396 ft | 514 kts | 277° |
| 2026-05-07 18:57 | 61.02148 | -81.24014 | 41388 ft | 514 kts | 277° |
| 2026-05-07 18:57 | 61.02929 | -81.38685 | 41388 ft | 514 kts | 276° |
| 2026-05-07 18:58 | 61.03693 | -81.53360 | 41387 ft | 515 kts | 276° |
| 2026-05-07 18:58 | 61.04442 | -81.68054 | 41386 ft | 515 kts | 276° |
| 2026-05-07 18:59 | 61.05176 | -81.82756 | 41382 ft | 515 kts | 276° |
| 2026-05-07 18:59 | 61.05889 | -81.97375 | 41380 ft | 515 kts | 276° |
| 2026-05-07 19:00 | 61.06591 | -82.12103 | 41381 ft | 516 kts | 276° |
| 2026-05-07 19:00 | 61.07277 | -82.26852 | 41377 ft | 516 kts | 276° |
| 2026-05-07 19:01 | 61.07948 | -82.41608 | 41381 ft | 516 kts | 276° |
| 2026-05-07 19:01 | 61.08602 | -82.56359 | 41378 ft | 515 kts | 276° |
| 2026-05-07 19:02 | 61.09240 | -82.71110 | 41377 ft | 515 kts | 275° |
| 2026-05-07 19:02 | 61.09861 | -82.85851 | 41375 ft | 514 kts | 275° |
| 2026-05-07 19:03 | 61.10465 | -83.00579 | 41374 ft | 514 kts | 275° |
| 2026-05-07 19:03 | 61.11053 | -83.15307 | 41378 ft | 514 kts | 275° |
| 2026-05-07 19:04 | 61.11622 | -83.29987 | 41380 ft | 515 kts | 275° |
| 2026-05-07 19:04 | 61.12181 | -83.44793 | 41382 ft | 516 kts | 275° |
| 2026-05-07 19:05 | 61.12723 | -83.59589 | 41382 ft | 516 kts | 275° |
| 2026-05-07 19:05 | 61.13249 | -83.74412 | 41381 ft | 516 kts | 275° |
| 2026-05-07 19:06 | 61.13758 | -83.89202 | 41382 ft | 515 kts | 275° |
| 2026-05-07 19:06 | 61.14490 | -84.11398 | 41377 ft | 514 kts | 274° |
| 2026-05-07 19:07 | 61.14958 | -84.26155 | 41381 ft | 515 kts | 274° |
| 2026-05-07 19:07 | 61.15407 | -84.40862 | 41380 ft | 515 kts | 274° |